sensor_id;sensor_type;location;lat;lon;timestamp;temperature;humidity
20650;DHT22;10484;48.736;9.332;2023-06-04T00:02:12;17.90;1.00
20650;DHT22;10484;48.736;9.332;2023-06-04T00:04:37;17.80;1.00
20650;DHT22;10484;48.736;9.332;2023-06-04T00:07:03;17.80;1.00
20650;DHT22;10484;48.736;9.332;2023-06-04T00:09:29;17.80;1.00
20650;DHT22;10484;48.736;9.332;2023-06-04T00:11:55;17.70;1.00
20650;DHT22;10484;48.736;9.332;2023-06-04T00:14:21;17.60;1.00
20650;DHT22;10484;48.736;9.332;2023-06-04T00:16:47;17.50;1.00
20650;DHT22;10484;48.736;9.332;2023-06-04T00:19:12;17.50;1.00
20650;DHT22;10484;48.736;9.332;2023-06-04T00:21:38;17.40;1.00
20650;DHT22;10484;48.736;9.332;2023-06-04T00:24:03;17.40;1.00
20650;DHT22;10484;48.736;9.332;2023-06-04T00:26:29;17.40;1.00
20650;DHT22;10484;48.736;9.332;2023-06-04T00:28:55;17.30;1.00
20650;DHT22;10484;48.736;9.332;2023-06-04T00:31:21;17.30;1.00
20650;DHT22;10484;48.736;9.332;2023-06-04T00:33:47;17.20;1.00
20650;DHT22;10484;48.736;9.332;2023-06-04T00:36:13;17.20;1.00
20650;DHT22;10484;48.736;9.332;2023-06-04T00:38:38;17.10;1.00
20650;DHT22;10484;48.736;9.332;2023-06-04T00:41:04;17.10;1.00
20650;DHT22;10484;48.736;9.332;2023-06-04T00:43:30;17.10;1.00
20650;DHT22;10484;48.736;9.332;2023-06-04T00:45:57;17.00;1.00
20650;DHT22;10484;48.736;9.332;2023-06-04T00:48:23;17.00;1.00
20650;DHT22;10484;48.736;9.332;2023-06-04T00:50:53;16.90;1.00
20650;DHT22;10484;48.736;9.332;2023-06-04T00:53:19;16.80;1.00
20650;DHT22;10484;48.736;9.332;2023-06-04T00:55:45;16.70;1.00
20650;DHT22;10484;48.736;9.332;2023-06-04T00:58:11;16.70;1.00
20650;DHT22;10484;48.736;9.332;2023-06-04T01:00:37;16.70;1.00
20650;DHT22;10484;48.736;9.332;2023-06-04T01:03:08;16.70;1.00
20650;DHT22;10484;48.736;9.332;2023-06-04T01:05:37;16.70;1.00
20650;DHT22;10484;48.736;9.332;2023-06-04T01:08:05;16.60;1.00
20650;DHT22;10484;48.736;9.332;2023-06-04T01:10:34;16.60;1.00
20650;DHT22;10484;48.736;9.332;2023-06-04T01:13:00;16.50;1.00
20650;DHT22;10484;48.736;9.332;2023-06-04T01:15:25;16.50;1.00
20650;DHT22;10484;48.736;9.332;2023-06-04T01:17:54;16.50;1.00
20650;DHT22;10484;48.736;9.332;2023-06-04T01:20:44;16.40;1.00
20650;DHT22;10484;48.736;9.332;2023-06-04T01:25:45;16.30;1.00
20650;DHT22;10484;48.736;9.332;2023-06-04T01:28:15;16.30;1.00
20650;DHT22;10484;48.736;9.332;2023-06-04T01:30:45;16.30;1.00
20650;DHT22;10484;48.736;9.332;2023-06-04T01:33:16;16.20;1.00
20650;DHT22;10484;48.736;9.332;2023-06-04T01:35:42;16.20;1.00
20650;DHT22;10484;48.736;9.332;2023-06-04T01:38:08;16.20;1.00
20650;DHT22;10484;48.736;9.332;2023-06-04T01:40:34;16.10;1.00
20650;DHT22;10484;48.736;9.332;2023-06-04T01:43:00;16.10;1.00
20650;DHT22;10484;48.736;9.332;2023-06-04T01:45:27;16.00;1.00
20650;DHT22;10484;48.736;9.332;2023-06-04T01:47:53;16.00;1.00
20650;DHT22;10484;48.736;9.332;2023-06-04T01:50:20;16.00;1.00
20650;DHT22;10484;48.736;9.332;2023-06-04T01:52:46;15.90;1.00
20650;DHT22;10484;48.736;9.332;2023-06-04T01:55:13;15.90;1.00
20650;DHT22;10484;48.736;9.332;2023-06-04T01:57:40;15.80;1.00
20650;DHT22;10484;48.736;9.332;2023-06-04T02:00:08;15.80;1.00
20650;DHT22;10484;48.736;9.332;2023-06-04T02:02:35;15.70;1.00
20650;DHT22;10484;48.736;9.332;2023-06-04T02:05:07;15.70;1.00
20650;DHT22;10484;48.736;9.332;2023-06-04T02:07:34;15.70;1.00
20650;DHT22;10484;48.736;9.332;2023-06-04T02:10:00;15.60;1.00
20650;DHT22;10484;48.736;9.332;2023-06-04T02:12:26;15.60;1.00
20650;DHT22;10484;48.736;9.332;2023-06-04T02:14:51;15.50;1.00
20650;DHT22;10484;48.736;9.332;2023-06-04T02:17:17;15.40;1.00
20650;DHT22;10484;48.736;9.332;2023-06-04T02:19:43;15.40;1.00
20650;DHT22;10484;48.736;9.332;2023-06-04T02:22:17;15.30;1.00
20650;DHT22;10484;48.736;9.332;2023-06-04T02:24:42;15.30;1.00
20650;DHT22;10484;48.736;9.332;2023-06-04T02:27:09;15.30;1.00
20650;DHT22;10484;48.736;9.332;2023-06-04T02:29:35;15.30;1.00
20650;DHT22;10484;48.736;9.332;2023-06-04T02:32:01;15.20;1.00
20650;DHT22;10484;48.736;9.332;2023-06-04T02:34:26;15.20;1.00
20650;DHT22;10484;48.736;9.332;2023-06-04T02:36:52;15.20;1.00
20650;DHT22;10484;48.736;9.332;2023-06-04T02:39:19;15.20;1.00
20650;DHT22;10484;48.736;9.332;2023-06-04T02:41:44;15.10;1.00
20650;DHT22;10484;48.736;9.332;2023-06-04T02:44:10;15.10;1.00
20650;DHT22;10484;48.736;9.332;2023-06-04T02:46:37;15.00;1.00
20650;DHT22;10484;48.736;9.332;2023-06-04T02:49:03;15.00;1.00
20650;DHT22;10484;48.736;9.332;2023-06-04T02:51:28;15.00;1.00
20650;DHT22;10484;48.736;9.332;2023-06-04T02:53:54;15.00;1.00
20650;DHT22;10484;48.736;9.332;2023-06-04T02:56:20;14.90;1.00
20650;DHT22;10484;48.736;9.332;2023-06-04T02:58:53;14.90;1.00
20650;DHT22;10484;48.736;9.332;2023-06-04T03:01:23;14.90;1.00
20650;DHT22;10484;48.736;9.332;2023-06-04T03:03:50;14.90;1.00
20650;DHT22;10484;48.736;9.332;2023-06-04T03:06:16;14.80;1.00
20650;DHT22;10484;48.736;9.332;2023-06-04T03:08:42;14.80;1.00
20650;DHT22;10484;48.736;9.332;2023-06-04T03:11:08;14.70;1.00
20650;DHT22;10484;48.736;9.332;2023-06-04T03:13:35;14.70;1.00
20650;DHT22;10484;48.736;9.332;2023-06-04T03:16:01;14.70;1.00
20650;DHT22;10484;48.736;9.332;2023-06-04T03:18:30;14.70;1.00
20650;DHT22;10484;48.736;9.332;2023-06-04T03:20:56;14.70;1.00
20650;DHT22;10484;48.736;9.332;2023-06-04T03:23:22;14.60;1.00
20650;DHT22;10484;48.736;9.332;2023-06-04T03:25:48;14.60;1.00
20650;DHT22;10484;48.736;9.332;2023-06-04T03:28:13;14.60;1.00
20650;DHT22;10484;48.736;9.332;2023-06-04T03:30:40;14.60;1.00
20650;DHT22;10484;48.736;9.332;2023-06-04T03:33:07;14.60;1.00
20650;DHT22;10484;48.736;9.332;2023-06-04T03:35:33;14.60;1.00
20650;DHT22;10484;48.736;9.332;2023-06-04T03:37:59;14.50;1.00
20650;DHT22;10484;48.736;9.332;2023-06-04T03:40:25;14.50;1.00
20650;DHT22;10484;48.736;9.332;2023-06-04T03:42:50;14.50;1.00
20650;DHT22;10484;48.736;9.332;2023-06-04T03:45:16;14.50;1.00
20650;DHT22;10484;48.736;9.332;2023-06-04T03:47:42;14.40;1.00
20650;DHT22;10484;48.736;9.332;2023-06-04T03:50:07;14.40;1.00
20650;DHT22;10484;48.736;9.332;2023-06-04T03:52:33;14.40;1.00
20650;DHT22;10484;48.736;9.332;2023-06-04T03:54:59;14.40;1.00
20650;DHT22;10484;48.736;9.332;2023-06-04T03:57:25;14.30;1.00
20650;DHT22;10484;48.736;9.332;2023-06-04T03:59:51;14.30;1.00
20650;DHT22;10484;48.736;9.332;2023-06-04T04:02:16;14.30;1.00
20650;DHT22;10484;48.736;9.332;2023-06-04T04:04:45;14.30;1.00
20650;DHT22;10484;48.736;9.332;2023-06-04T04:07:11;14.30;1.00
20650;DHT22;10484;48.736;9.332;2023-06-04T04:09:37;14.20;1.00
20650;DHT22;10484;48.736;9.332;2023-06-04T04:12:03;14.20;1.00
20650;DHT22;10484;48.736;9.332;2023-06-04T04:14:29;14.20;1.00
20650;DHT22;10484;48.736;9.332;2023-06-04T04:16:55;14.20;1.00
20650;DHT22;10484;48.736;9.332;2023-06-04T04:19:20;14.20;1.00
20650;DHT22;10484;48.736;9.332;2023-06-04T04:21:46;14.20;1.00
20650;DHT22;10484;48.736;9.332;2023-06-04T04:24:23;14.20;1.00
20650;DHT22;10484;48.736;9.332;2023-06-04T04:26:48;14.30;1.00
20650;DHT22;10484;48.736;9.332;2023-06-04T04:29:18;14.20;1.00
20650;DHT22;10484;48.736;9.332;2023-06-04T04:31:51;14.20;1.00
20650;DHT22;10484;48.736;9.332;2023-06-04T04:34:17;14.20;1.00
20650;DHT22;10484;48.736;9.332;2023-06-04T04:36:46;14.20;1.00
20650;DHT22;10484;48.736;9.332;2023-06-04T04:39:26;14.20;1.00
20650;DHT22;10484;48.736;9.332;2023-06-04T04:41:52;14.20;1.00
20650;DHT22;10484;48.736;9.332;2023-06-04T04:44:18;14.20;1.00
20650;DHT22;10484;48.736;9.332;2023-06-04T04:46:43;14.20;1.00
20650;DHT22;10484;48.736;9.332;2023-06-04T04:49:09;14.20;1.00
20650;DHT22;10484;48.736;9.332;2023-06-04T04:51:35;14.20;1.00
20650;DHT22;10484;48.736;9.332;2023-06-04T04:54:01;14.20;1.00
20650;DHT22;10484;48.736;9.332;2023-06-04T04:56:27;14.20;1.00
20650;DHT22;10484;48.736;9.332;2023-06-04T04:58:53;14.20;1.00
20650;DHT22;10484;48.736;9.332;2023-06-04T05:01:19;14.30;1.00
20650;DHT22;10484;48.736;9.332;2023-06-04T05:03:45;14.30;1.00
20650;DHT22;10484;48.736;9.332;2023-06-04T05:06:11;14.30;1.00
20650;DHT22;10484;48.736;9.332;2023-06-04T05:08:36;14.30;1.00
20650;DHT22;10484;48.736;9.332;2023-06-04T05:11:02;14.40;1.00
20650;DHT22;10484;48.736;9.332;2023-06-04T05:13:27;14.40;1.00
20650;DHT22;10484;48.736;9.332;2023-06-04T05:15:53;14.40;1.00
20650;DHT22;10484;48.736;9.332;2023-06-04T05:18:19;14.40;1.00
20650;DHT22;10484;48.736;9.332;2023-06-04T05:20:54;14.50;1.00
20650;DHT22;10484;48.736;9.332;2023-06-04T05:23:20;14.60;1.00
20650;DHT22;10484;48.736;9.332;2023-06-04T05:25:46;14.60;1.00
20650;DHT22;10484;48.736;9.332;2023-06-04T05:28:14;14.60;1.00
20650;DHT22;10484;48.736;9.332;2023-06-04T05:30:40;14.70;1.00
20650;DHT22;10484;48.736;9.332;2023-06-04T05:33:07;14.70;1.00
20650;DHT22;10484;48.736;9.332;2023-06-04T05:35:37;14.70;1.00
20650;DHT22;10484;48.736;9.332;2023-06-04T05:38:06;14.80;1.00
20650;DHT22;10484;48.736;9.332;2023-06-04T05:40:32;14.80;1.00
20650;DHT22;10484;48.736;9.332;2023-06-04T05:42:57;14.90;1.00
20650;DHT22;10484;48.736;9.332;2023-06-04T05:45:23;14.90;1.00
20650;DHT22;10484;48.736;9.332;2023-06-04T05:47:48;14.90;1.00
20650;DHT22;10484;48.736;9.332;2023-06-04T05:50:14;15.00;1.00
20650;DHT22;10484;48.736;9.332;2023-06-04T05:52:39;15.00;1.00
20650;DHT22;10484;48.736;9.332;2023-06-04T05:55:05;15.10;1.00
20650;DHT22;10484;48.736;9.332;2023-06-04T05:57:33;15.10;1.00
20650;DHT22;10484;48.736;9.332;2023-06-04T05:59:58;15.10;1.00
20650;DHT22;10484;48.736;9.332;2023-06-04T06:02:24;15.10;1.00
20650;DHT22;10484;48.736;9.332;2023-06-04T06:04:49;15.20;1.00
20650;DHT22;10484;48.736;9.332;2023-06-04T06:07:15;15.20;1.00
20650;DHT22;10484;48.736;9.332;2023-06-04T06:09:40;15.20;1.00
20650;DHT22;10484;48.736;9.332;2023-06-04T06:12:06;15.20;1.00
20650;DHT22;10484;48.736;9.332;2023-06-04T06:14:31;15.30;1.00
20650;DHT22;10484;48.736;9.332;2023-06-04T06:16:57;15.30;1.00
20650;DHT22;10484;48.736;9.332;2023-06-04T06:19:23;15.40;1.00
20650;DHT22;10484;48.736;9.332;2023-06-04T06:21:48;15.40;1.00
20650;DHT22;10484;48.736;9.332;2023-06-04T06:24:14;15.40;1.00
20650;DHT22;10484;48.736;9.332;2023-06-04T06:26:39;15.50;1.00
20650;DHT22;10484;48.736;9.332;2023-06-04T06:29:05;15.50;1.00
20650;DHT22;10484;48.736;9.332;2023-06-04T06:31:31;15.50;1.00
20650;DHT22;10484;48.736;9.332;2023-06-04T06:33:56;15.60;1.00
20650;DHT22;10484;48.736;9.332;2023-06-04T06:36:22;15.60;1.00
20650;DHT22;10484;48.736;9.332;2023-06-04T06:38:47;15.60;1.00
20650;DHT22;10484;48.736;9.332;2023-06-04T06:41:13;15.60;1.00
20650;DHT22;10484;48.736;9.332;2023-06-04T06:43:38;15.70;1.00
20650;DHT22;10484;48.736;9.332;2023-06-04T06:46:04;15.70;1.00
20650;DHT22;10484;48.736;9.332;2023-06-04T06:48:29;15.80;1.00
20650;DHT22;10484;48.736;9.332;2023-06-04T06:50:55;15.80;1.00
20650;DHT22;10484;48.736;9.332;2023-06-04T06:53:21;15.90;1.00
20650;DHT22;10484;48.736;9.332;2023-06-04T06:55:47;16.00;1.00
20650;DHT22;10484;48.736;9.332;2023-06-04T06:58:12;16.00;1.00
20650;DHT22;10484;48.736;9.332;2023-06-04T07:00:38;16.10;1.00
20650;DHT22;10484;48.736;9.332;2023-06-04T07:03:04;16.10;1.00
20650;DHT22;10484;48.736;9.332;2023-06-04T07:05:30;16.20;1.00
20650;DHT22;10484;48.736;9.332;2023-06-04T07:07:56;16.20;1.00
20650;DHT22;10484;48.736;9.332;2023-06-04T07:10:23;16.30;1.00
20650;DHT22;10484;48.736;9.332;2023-06-04T07:12:48;16.30;1.00
20650;DHT22;10484;48.736;9.332;2023-06-04T07:15:14;16.40;1.00
20650;DHT22;10484;48.736;9.332;2023-06-04T07:17:40;16.50;1.00
20650;DHT22;10484;48.736;9.332;2023-06-04T07:20:06;16.60;1.00
20650;DHT22;10484;48.736;9.332;2023-06-04T07:22:33;16.60;1.00
20650;DHT22;10484;48.736;9.332;2023-06-04T07:24:58;16.70;1.00
20650;DHT22;10484;48.736;9.332;2023-06-04T07:27:24;16.80;1.00
20650;DHT22;10484;48.736;9.332;2023-06-04T07:29:51;16.90;1.00
20650;DHT22;10484;48.736;9.332;2023-06-04T07:32:17;16.90;1.00
20650;DHT22;10484;48.736;9.332;2023-06-04T07:34:42;16.90;1.00
20650;DHT22;10484;48.736;9.332;2023-06-04T07:37:08;17.00;1.00
20650;DHT22;10484;48.736;9.332;2023-06-04T07:39:34;17.10;1.00
20650;DHT22;10484;48.736;9.332;2023-06-04T07:42:00;17.10;1.00
20650;DHT22;10484;48.736;9.332;2023-06-04T07:44:26;17.30;1.00
20650;DHT22;10484;48.736;9.332;2023-06-04T07:46:51;17.40;1.00
20650;DHT22;10484;48.736;9.332;2023-06-04T07:49:17;17.50;1.00
20650;DHT22;10484;48.736;9.332;2023-06-04T07:51:42;17.60;1.00
20650;DHT22;10484;48.736;9.332;2023-06-04T07:54:08;17.70;1.00
20650;DHT22;10484;48.736;9.332;2023-06-04T07:56:33;17.70;1.00
20650;DHT22;10484;48.736;9.332;2023-06-04T07:59:00;17.80;1.00
20650;DHT22;10484;48.736;9.332;2023-06-04T08:01:26;17.90;1.00
20650;DHT22;10484;48.736;9.332;2023-06-04T08:03:51;18.00;1.00
20650;DHT22;10484;48.736;9.332;2023-06-04T08:06:17;18.20;1.00
20650;DHT22;10484;48.736;9.332;2023-06-04T08:08:46;18.30;1.00
20650;DHT22;10484;48.736;9.332;2023-06-04T08:11:14;18.40;1.00
20650;DHT22;10484;48.736;9.332;2023-06-04T08:13:40;18.50;1.00
20650;DHT22;10484;48.736;9.332;2023-06-04T08:16:06;18.60;1.00
20650;DHT22;10484;48.736;9.332;2023-06-04T08:18:31;18.60;1.00
20650;DHT22;10484;48.736;9.332;2023-06-04T08:20:57;18.70;1.00
20650;DHT22;10484;48.736;9.332;2023-06-04T08:23:22;18.90;1.00
20650;DHT22;10484;48.736;9.332;2023-06-04T08:25:48;19.10;1.00
20650;DHT22;10484;48.736;9.332;2023-06-04T08:28:14;19.20;1.00
20650;DHT22;10484;48.736;9.332;2023-06-04T08:30:42;19.30;1.00
20650;DHT22;10484;48.736;9.332;2023-06-04T08:33:08;19.40;1.00
20650;DHT22;10484;48.736;9.332;2023-06-04T08:35:33;19.60;1.00
20650;DHT22;10484;48.736;9.332;2023-06-04T08:37:59;19.70;1.00
20650;DHT22;10484;48.736;9.332;2023-06-04T08:40:24;19.80;1.00
20650;DHT22;10484;48.736;9.332;2023-06-04T08:42:51;19.90;1.00
20650;DHT22;10484;48.736;9.332;2023-06-04T08:45:20;20.00;1.00
20650;DHT22;10484;48.736;9.332;2023-06-04T08:47:49;20.10;1.00
20650;DHT22;10484;48.736;9.332;2023-06-04T08:50:21;20.20;1.00
20650;DHT22;10484;48.736;9.332;2023-06-04T08:52:54;20.40;1.00
20650;DHT22;10484;48.736;9.332;2023-06-04T08:55:21;20.60;1.00
20650;DHT22;10484;48.736;9.332;2023-06-04T08:57:49;20.70;1.00
20650;DHT22;10484;48.736;9.332;2023-06-04T09:00:15;20.90;1.00
20650;DHT22;10484;48.736;9.332;2023-06-04T09:02:42;20.90;1.00
20650;DHT22;10484;48.736;9.332;2023-06-04T09:05:08;21.10;1.00
20650;DHT22;10484;48.736;9.332;2023-06-04T09:07:39;21.30;1.00
20650;DHT22;10484;48.736;9.332;2023-06-04T09:10:09;21.40;1.00
20650;DHT22;10484;48.736;9.332;2023-06-04T09:12:42;21.40;1.00
20650;DHT22;10484;48.736;9.332;2023-06-04T09:15:08;21.50;1.00
20650;DHT22;10484;48.736;9.332;2023-06-04T09:17:34;21.60;1.00
20650;DHT22;10484;48.736;9.332;2023-06-04T09:20:00;21.70;1.00
20650;DHT22;10484;48.736;9.332;2023-06-04T09:22:33;21.80;1.00
20650;DHT22;10484;48.736;9.332;2023-06-04T09:24:59;21.90;1.00
20650;DHT22;10484;48.736;9.332;2023-06-04T09:27:24;22.10;1.00
20650;DHT22;10484;48.736;9.332;2023-06-04T09:29:56;22.10;1.00
20650;DHT22;10484;48.736;9.332;2023-06-04T09:32:26;22.20;1.00
20650;DHT22;10484;48.736;9.332;2023-06-04T09:35:07;22.30;1.00
20650;DHT22;10484;48.736;9.332;2023-06-04T09:37:34;22.40;1.00
20650;DHT22;10484;48.736;9.332;2023-06-04T09:40:00;22.60;1.00
20650;DHT22;10484;48.736;9.332;2023-06-04T09:42:26;22.60;1.00
20650;DHT22;10484;48.736;9.332;2023-06-04T09:44:52;22.70;1.00
20650;DHT22;10484;48.736;9.332;2023-06-04T09:47:17;22.80;1.00
20650;DHT22;10484;48.736;9.332;2023-06-04T09:49:44;22.90;1.00
20650;DHT22;10484;48.736;9.332;2023-06-04T09:52:10;23.00;1.00
20650;DHT22;10484;48.736;9.332;2023-06-04T09:54:40;23.20;1.00
20650;DHT22;10484;48.736;9.332;2023-06-04T09:57:19;23.30;1.00
20650;DHT22;10484;48.736;9.332;2023-06-04T09:59:48;23.30;1.00
20650;DHT22;10484;48.736;9.332;2023-06-04T10:02:19;23.40;1.00
20650;DHT22;10484;48.736;9.332;2023-06-04T10:04:50;23.50;1.00
20650;DHT22;10484;48.736;9.332;2023-06-04T10:07:18;23.60;1.00
20650;DHT22;10484;48.736;9.332;2023-06-04T10:09:44;23.70;1.00
20650;DHT22;10484;48.736;9.332;2023-06-04T10:12:14;23.80;1.00
20650;DHT22;10484;48.736;9.332;2023-06-04T10:14:51;23.90;1.00
20650;DHT22;10484;48.736;9.332;2023-06-04T10:17:18;24.00;1.00
20650;DHT22;10484;48.736;9.332;2023-06-04T10:19:47;24.00;1.00
20650;DHT22;10484;48.736;9.332;2023-06-04T10:22:14;24.10;1.00
20650;DHT22;10484;48.736;9.332;2023-06-04T10:24:40;24.20;1.00
20650;DHT22;10484;48.736;9.332;2023-06-04T10:27:06;24.30;1.00
20650;DHT22;10484;48.736;9.332;2023-06-04T10:29:36;24.30;1.00
20650;DHT22;10484;48.736;9.332;2023-06-04T10:32:02;24.40;1.00
20650;DHT22;10484;48.736;9.332;2023-06-04T10:34:28;24.50;1.00
20650;DHT22;10484;48.736;9.332;2023-06-04T10:36:55;24.50;1.00
20650;DHT22;10484;48.736;9.332;2023-06-04T10:39:31;24.50;1.00
20650;DHT22;10484;48.736;9.332;2023-06-04T10:42:01;24.60;1.00
20650;DHT22;10484;48.736;9.332;2023-06-04T10:44:31;24.60;1.00
20650;DHT22;10484;48.736;9.332;2023-06-04T10:46:57;24.70;1.00
20650;DHT22;10484;48.736;9.332;2023-06-04T10:49:29;24.80;1.00
20650;DHT22;10484;48.736;9.332;2023-06-04T10:51:56;25.00;1.00
20650;DHT22;10484;48.736;9.332;2023-06-04T10:54:26;25.00;1.00
20650;DHT22;10484;48.736;9.332;2023-06-04T10:56:55;25.10;1.00
20650;DHT22;10484;48.736;9.332;2023-06-04T10:59:21;25.20;1.00
20650;DHT22;10484;48.736;9.332;2023-06-04T11:01:47;25.30;1.00
20650;DHT22;10484;48.736;9.332;2023-06-04T11:06:45;25.40;1.00
20650;DHT22;10484;48.736;9.332;2023-06-04T11:09:13;25.50;1.00
20650;DHT22;10484;48.736;9.332;2023-06-04T11:11:41;25.60;1.00
20650;DHT22;10484;48.736;9.332;2023-06-04T11:14:08;25.70;1.00
20650;DHT22;10484;48.736;9.332;2023-06-04T11:16:34;25.70;1.00
20650;DHT22;10484;48.736;9.332;2023-06-04T11:19:00;25.80;1.00
20650;DHT22;10484;48.736;9.332;2023-06-04T11:21:25;25.90;1.00
20650;DHT22;10484;48.736;9.332;2023-06-04T11:24:00;25.90;1.00
20650;DHT22;10484;48.736;9.332;2023-06-04T11:26:31;26.00;1.00
20650;DHT22;10484;48.736;9.332;2023-06-04T11:28:57;26.10;1.00
20650;DHT22;10484;48.736;9.332;2023-06-04T11:31:22;26.20;1.00
20650;DHT22;10484;48.736;9.332;2023-06-04T11:33:48;26.20;1.00
20650;DHT22;10484;48.736;9.332;2023-06-04T11:39:01;26.20;1.00
20650;DHT22;10484;48.736;9.332;2023-06-04T11:41:29;26.30;1.00
20650;DHT22;10484;48.736;9.332;2023-06-04T11:43:56;26.40;1.00
20650;DHT22;10484;48.736;9.332;2023-06-04T11:46:23;26.50;1.00
20650;DHT22;10484;48.736;9.332;2023-06-04T11:48:51;26.70;1.00
20650;DHT22;10484;48.736;9.332;2023-06-04T11:51:17;26.70;1.00
20650;DHT22;10484;48.736;9.332;2023-06-04T11:53:43;26.80;1.00
20650;DHT22;10484;48.736;9.332;2023-06-04T11:56:08;26.90;1.00
20650;DHT22;10484;48.736;9.332;2023-06-04T11:58:34;27.00;1.00
20650;DHT22;10484;48.736;9.332;2023-06-04T12:01:00;27.00;1.00
20650;DHT22;10484;48.736;9.332;2023-06-04T12:03:40;26.90;1.00
20650;DHT22;10484;48.736;9.332;2023-06-04T12:06:17;26.90;1.00
20650;DHT22;10484;48.736;9.332;2023-06-04T12:08:46;27.00;1.00
20650;DHT22;10484;48.736;9.332;2023-06-04T12:11:30;27.00;1.00
20650;DHT22;10484;48.736;9.332;2023-06-04T12:14:05;27.10;1.00
20650;DHT22;10484;48.736;9.332;2023-06-04T12:16:31;27.20;1.00
20650;DHT22;10484;48.736;9.332;2023-06-04T12:19:08;27.30;1.00
20650;DHT22;10484;48.736;9.332;2023-06-04T12:21:34;27.40;1.00
20650;DHT22;10484;48.736;9.332;2023-06-04T12:24:12;27.40;1.00
20650;DHT22;10484;48.736;9.332;2023-06-04T12:26:40;27.50;1.00
20650;DHT22;10484;48.736;9.332;2023-06-04T12:29:16;27.40;1.00
20650;DHT22;10484;48.736;9.332;2023-06-04T12:31:44;27.50;1.00
20650;DHT22;10484;48.736;9.332;2023-06-04T12:34:11;27.60;1.00
20650;DHT22;10484;48.736;9.332;2023-06-04T12:36:37;27.60;1.00
20650;DHT22;10484;48.736;9.332;2023-06-04T12:39:04;27.50;1.00
20650;DHT22;10484;48.736;9.332;2023-06-04T12:41:33;27.50;1.00
20650;DHT22;10484;48.736;9.332;2023-06-04T12:44:00;27.50;1.00
20650;DHT22;10484;48.736;9.332;2023-06-04T12:46:26;27.60;1.00
20650;DHT22;10484;48.736;9.332;2023-06-04T12:48:52;27.70;1.00
20650;DHT22;10484;48.736;9.332;2023-06-04T12:51:19;27.90;1.00
20650;DHT22;10484;48.736;9.332;2023-06-04T12:53:46;28.00;1.00
20650;DHT22;10484;48.736;9.332;2023-06-04T12:56:11;28.10;1.00
20650;DHT22;10484;48.736;9.332;2023-06-04T12:58:38;28.10;1.00
20650;DHT22;10484;48.736;9.332;2023-06-04T13:01:04;28.10;1.00
20650;DHT22;10484;48.736;9.332;2023-06-04T13:03:31;28.20;1.00
20650;DHT22;10484;48.736;9.332;2023-06-04T13:05:57;28.20;1.00
20650;DHT22;10484;48.736;9.332;2023-06-04T13:08:23;28.00;1.00
20650;DHT22;10484;48.736;9.332;2023-06-04T13:10:50;28.00;1.00
20650;DHT22;10484;48.736;9.332;2023-06-04T13:13:17;28.00;1.00
20650;DHT22;10484;48.736;9.332;2023-06-04T13:15:43;28.10;1.00
20650;DHT22;10484;48.736;9.332;2023-06-04T13:18:09;28.20;1.00
20650;DHT22;10484;48.736;9.332;2023-06-04T13:20:36;28.20;1.00
20650;DHT22;10484;48.736;9.332;2023-06-04T13:23:01;28.10;1.00
20650;DHT22;10484;48.736;9.332;2023-06-04T13:25:27;28.00;1.00
20650;DHT22;10484;48.736;9.332;2023-06-04T13:27:54;28.10;1.00
20650;DHT22;10484;48.736;9.332;2023-06-04T13:30:21;28.20;1.00
20650;DHT22;10484;48.736;9.332;2023-06-04T13:32:47;28.30;1.00
20650;DHT22;10484;48.736;9.332;2023-06-04T13:35:12;28.50;1.00
20650;DHT22;10484;48.736;9.332;2023-06-04T13:37:38;28.50;1.00
20650;DHT22;10484;48.736;9.332;2023-06-04T13:40:04;28.60;1.00
20650;DHT22;10484;48.736;9.332;2023-06-04T13:42:30;28.80;1.00
20650;DHT22;10484;48.736;9.332;2023-06-04T13:44:55;28.80;1.00
20650;DHT22;10484;48.736;9.332;2023-06-04T13:47:21;28.80;1.00
20650;DHT22;10484;48.736;9.332;2023-06-04T13:49:47;28.70;1.00
20650;DHT22;10484;48.736;9.332;2023-06-04T13:52:13;28.50;1.00
20650;DHT22;10484;48.736;9.332;2023-06-04T13:54:38;28.50;1.00
20650;DHT22;10484;48.736;9.332;2023-06-04T13:57:04;28.50;1.00
20650;DHT22;10484;48.736;9.332;2023-06-04T13:59:32;28.50;1.00
20650;DHT22;10484;48.736;9.332;2023-06-04T14:01:57;28.50;1.00
20650;DHT22;10484;48.736;9.332;2023-06-04T14:04:23;28.40;1.00
20650;DHT22;10484;48.736;9.332;2023-06-04T14:06:48;28.40;1.00
20650;DHT22;10484;48.736;9.332;2023-06-04T14:09:15;28.40;1.00
20650;DHT22;10484;48.736;9.332;2023-06-04T14:11:40;28.50;1.00
20650;DHT22;10484;48.736;9.332;2023-06-04T14:14:07;28.60;1.00
20650;DHT22;10484;48.736;9.332;2023-06-04T14:16:32;28.70;1.00
20650;DHT22;10484;48.736;9.332;2023-06-04T14:18:59;28.70;1.00
20650;DHT22;10484;48.736;9.332;2023-06-04T14:21:26;28.70;1.00
20650;DHT22;10484;48.736;9.332;2023-06-04T14:23:51;28.80;1.00
20650;DHT22;10484;48.736;9.332;2023-06-04T14:26:17;28.60;1.00
20650;DHT22;10484;48.736;9.332;2023-06-04T14:28:43;28.60;1.00
20650;DHT22;10484;48.736;9.332;2023-06-04T14:31:09;28.70;1.00
20650;DHT22;10484;48.736;9.332;2023-06-04T14:33:35;28.60;1.00
20650;DHT22;10484;48.736;9.332;2023-06-04T14:36:03;28.60;1.00
20650;DHT22;10484;48.736;9.332;2023-06-04T14:38:29;28.70;1.00
20650;DHT22;10484;48.736;9.332;2023-06-04T14:40:55;28.80;1.00
20650;DHT22;10484;48.736;9.332;2023-06-04T14:43:22;28.90;1.00
20650;DHT22;10484;48.736;9.332;2023-06-04T14:45:48;28.80;1.00
20650;DHT22;10484;48.736;9.332;2023-06-04T14:48:13;28.70;1.00
20650;DHT22;10484;48.736;9.332;2023-06-04T14:50:39;28.40;1.00
20650;DHT22;10484;48.736;9.332;2023-06-04T14:53:05;28.40;1.00
20650;DHT22;10484;48.736;9.332;2023-06-04T14:55:33;28.40;1.00
20650;DHT22;10484;48.736;9.332;2023-06-04T14:57:59;28.40;1.00
20650;DHT22;10484;48.736;9.332;2023-06-04T15:00:25;28.30;1.00
20650;DHT22;10484;48.736;9.332;2023-06-04T15:02:51;28.20;1.00
20650;DHT22;10484;48.736;9.332;2023-06-04T15:05:16;28.20;1.00
20650;DHT22;10484;48.736;9.332;2023-06-04T15:07:42;28.30;1.00
20650;DHT22;10484;48.736;9.332;2023-06-04T15:10:08;28.40;1.00
20650;DHT22;10484;48.736;9.332;2023-06-04T15:12:34;28.40;1.00
20650;DHT22;10484;48.736;9.332;2023-06-04T15:15:05;28.50;1.00
20650;DHT22;10484;48.736;9.332;2023-06-04T15:17:31;28.50;1.00
20650;DHT22;10484;48.736;9.332;2023-06-04T15:19:56;28.50;1.00
20650;DHT22;10484;48.736;9.332;2023-06-04T15:22:22;28.60;1.00
20650;DHT22;10484;48.736;9.332;2023-06-04T15:24:47;28.50;1.00
20650;DHT22;10484;48.736;9.332;2023-06-04T15:27:13;28.40;1.00
20650;DHT22;10484;48.736;9.332;2023-06-04T15:29:39;28.40;1.00
20650;DHT22;10484;48.736;9.332;2023-06-04T15:32:04;28.30;1.00
20650;DHT22;10484;48.736;9.332;2023-06-04T15:34:30;28.30;1.00
20650;DHT22;10484;48.736;9.332;2023-06-04T15:36:55;28.30;1.00
20650;DHT22;10484;48.736;9.332;2023-06-04T15:39:21;28.40;1.00
20650;DHT22;10484;48.736;9.332;2023-06-04T15:41:47;28.40;1.00
20650;DHT22;10484;48.736;9.332;2023-06-04T15:44:12;28.30;1.00
20650;DHT22;10484;48.736;9.332;2023-06-04T15:46:38;28.20;1.00
20650;DHT22;10484;48.736;9.332;2023-06-04T15:49:06;28.20;1.00
20650;DHT22;10484;48.736;9.332;2023-06-04T15:51:34;28.30;1.00